createdAt,value
2018-01-10T00:01:04.758Z,92.70
2018-01-10T00:03:32.484Z,92.70
2018-01-10T00:05:59.918Z,92.70
2018-01-10T00:08:28.177Z,92.70
2018-01-10T00:10:56.380Z,92.80
2018-01-10T00:13:23.813Z,92.80
2018-01-10T00:15:52.048Z,92.80
2018-01-10T00:18:19.491Z,92.80
2018-01-10T00:20:46.924Z,92.80
2018-01-10T00:23:14.829Z,92.80
2018-01-10T00:25:42.314Z,92.90
2018-01-10T00:28:09.705Z,92.90
2018-01-10T00:30:37.164Z,92.90
2018-01-10T00:33:04.624Z,92.90
2018-01-10T00:35:32.199Z,93.00
2018-01-10T00:37:59.644Z,93.30
2018-01-10T00:40:27.071Z,93.00
2018-01-10T00:42:55.392Z,93.00
2018-01-10T00:45:22.828Z,93.00
2018-01-10T00:47:50.283Z,93.10
2018-01-10T00:50:17.721Z,93.10
2018-01-10T00:52:45.947Z,93.20
2018-01-10T00:55:13.412Z,93.20
2018-01-10T00:57:40.860Z,93.20
2018-01-10T01:00:08.393Z,93.20
2018-01-10T01:02:35.890Z,93.20
2018-01-10T01:05:03.337Z,93.20
2018-01-10T01:07:30.781Z,93.30
2018-01-10T01:09:58.253Z,93.30
2018-01-10T01:12:25.696Z,93.30
2018-01-10T01:14:53.185Z,93.30
2018-01-10T01:17:20.696Z,93.40
2018-01-10T01:19:48.128Z,93.40
2018-01-10T01:22:17.411Z,93.40
2018-01-10T01:24:44.848Z,93.40
2018-01-10T01:27:12.396Z,93.40
2018-01-10T01:29:39.868Z,93.40
2018-01-10T01:32:07.312Z,93.40
2018-01-10T01:34:34.884Z,93.40
2018-01-10T01:37:02.320Z,93.40
2018-01-10T01:39:29.771Z,93.50
2018-01-10T01:41:57.356Z,93.50
2018-01-10T01:44:24.937Z,93.50
2018-01-10T01:46:52.424Z,93.50
2018-01-10T01:49:20.633Z,93.50
2018-01-10T01:51:48.073Z,93.50
2018-01-10T01:54:15.545Z,93.50
2018-01-10T01:56:42.974Z,93.60
2018-01-10T01:59:11.253Z,93.60
2018-01-10T02:01:39.457Z,93.70
2018-01-10T02:04:06.949Z,93.70
2018-01-10T02:06:34.383Z,93.70
2018-01-10T02:09:02.812Z,93.70
2018-01-10T02:11:31.020Z,93.70
2018-01-10T02:13:58.483Z,93.70
2018-01-10T02:16:25.925Z,93.70
2018-01-10T02:18:53.545Z,93.70
2018-01-10T02:21:20.979Z,93.70
2018-01-10T02:23:48.442Z,93.80
2018-01-10T02:26:15.885Z,93.80
2018-01-10T02:28:43.356Z,93.80
2018-01-10T02:31:10.788Z,93.80
2018-01-10T02:33:38.219Z,93.80
2018-01-10T02:36:05.724Z,93.80
2018-01-10T02:38:34.149Z,94.10
2018-01-10T02:41:02.352Z,93.90
2018-01-10T02:43:29.838Z,93.80
2018-01-10T02:45:57.272Z,93.90
2018-01-10T02:48:24.699Z,93.90
2018-01-10T02:50:52.954Z,93.90
2018-01-10T02:53:20.386Z,93.90
2018-01-10T02:55:47.829Z,93.90
2018-01-10T02:58:15.422Z,93.90
2018-01-10T03:00:42.908Z,93.90
2018-01-10T03:03:11.116Z,94.00
2018-01-10T03:05:38.547Z,94.00
2018-01-10T03:08:06.008Z,94.00
2018-01-10T03:10:34.348Z,94.00
2018-01-10T03:13:01.810Z,94.00
2018-01-10T03:15:29.244Z,94.00
2018-01-10T03:17:56.747Z,94.00
2018-01-10T03:20:25.064Z,94.10
2018-01-10T03:22:56.132Z,94.10
2018-01-10T03:25:23.596Z,94.10
2018-01-10T03:27:51.033Z,94.10
2018-01-10T03:30:18.500Z,94.10
2018-01-10T03:32:45.972Z,94.10
2018-01-10T03:35:13.408Z,94.10
2018-01-10T03:37:40.844Z,94.10
2018-01-10T03:40:08.404Z,94.10
2018-01-10T03:42:35.844Z,94.10
2018-01-10T03:45:03.504Z,94.10
2018-01-10T03:47:30.948Z,94.10
2018-01-10T03:49:59.176Z,94.10
2018-01-10T03:52:26.616Z,94.10
2018-01-10T03:54:54.090Z,94.10
2018-01-10T03:57:21.521Z,94.10
2018-01-10T03:59:49.056Z,94.10
2018-01-10T04:02:17.262Z,94.10
2018-01-10T04:04:44.701Z,94.50
2018-01-10T04:07:12.194Z,94.10
2018-01-10T04:09:39.640Z,94.10
2018-01-10T04:12:08.055Z,94.10
2018-01-10T04:14:35.637Z,94.10
2018-01-10T04:17:03.064Z,94.10
2018-01-10T04:19:30.512Z,94.20
2018-01-10T04:21:58.469Z,94.20
2018-01-10T04:24:25.904Z,94.20
2018-01-10T04:26:53.390Z,94.50
2018-01-10T04:29:20.873Z,94.20
2018-01-10T04:31:48.276Z,94.20
2018-01-10T04:34:15.744Z,94.20
2018-01-10T04:36:43.181Z,94.20
2018-01-10T04:39:10.884Z,94.20
2018-01-10T04:41:38.320Z,94.20
2018-01-10T04:44:05.785Z,94.20
2018-01-10T04:46:33.351Z,94.20
2018-01-10T04:49:00.832Z,94.20
2018-01-10T04:51:28.280Z,94.20
2018-01-10T04:53:55.717Z,94.30
2018-01-10T04:56:23.495Z,94.30
2018-01-10T04:58:50.940Z,94.20
2018-01-10T05:01:18.368Z,94.20
2018-01-10T05:03:50.788Z,94.30
2018-01-10T05:06:18.243Z,94.30
2018-01-10T05:08:45.680Z,94.60
2018-01-10T05:11:13.141Z,94.30
2018-01-10T05:13:40.576Z,94.30
2018-01-10T05:16:13.097Z,94.30
2018-01-10T05:18:40.540Z,94.40
2018-01-10T05:21:08.024Z,94.30
2018-01-10T05:23:35.460Z,94.40
2018-01-10T05:26:02.901Z,94.40
2018-01-10T05:28:30.531Z,94.40
2018-01-10T05:30:58.749Z,94.40
2018-01-10T05:33:27.148Z,94.40
2018-01-10T05:35:55.107Z,94.40
2018-01-10T05:38:22.544Z,94.40
2018-01-10T05:40:49.993Z,94.40
2018-01-10T05:43:17.483Z,94.40
2018-01-10T05:45:44.924Z,94.40
2018-01-10T05:48:12.356Z,94.40
2018-01-10T05:50:40.047Z,94.40
2018-01-10T05:53:07.486Z,94.40
2018-01-10T05:55:34.911Z,94.40
2018-01-10T05:58:04.113Z,94.40
2018-01-10T06:00:32.368Z,94.40
2018-01-10T06:03:00.509Z,94.40
2018-01-10T06:05:27.944Z,94.40
2018-01-10T06:07:55.485Z,94.40
2018-01-10T06:10:23.730Z,94.40
2018-01-10T06:12:51.148Z,94.40
2018-01-10T06:15:20.485Z,94.40
2018-01-10T06:17:49.469Z,94.40
2018-01-10T06:20:16.937Z,94.40
2018-01-10T06:22:44.364Z,94.50
2018-01-10T06:25:11.868Z,94.50
2018-01-10T06:27:39.301Z,94.50
2018-01-10T06:30:06.756Z,94.40
2018-01-10T06:32:34.187Z,94.50
2018-01-10T06:35:01.652Z,94.40
2018-01-10T06:37:29.081Z,94.40
2018-01-10T06:39:59.046Z,94.50
2018-01-10T06:42:29.478Z,94.50
2018-01-10T06:44:56.907Z,94.50
2018-01-10T06:47:24.487Z,94.50
2018-01-10T06:49:51.920Z,94.90
2018-01-10T06:52:19.352Z,94.80
2018-01-10T06:54:46.816Z,94.80
2018-01-10T06:57:15.511Z,94.80
2018-01-10T06:59:42.936Z,94.80
2018-01-10T07:02:11.143Z,95.10
2018-01-10T07:04:40.061Z,95.10
2018-01-10T07:07:07.557Z,95.00
2018-01-10T07:09:35.756Z,95.00
2018-01-10T07:12:03.184Z,95.00
2018-01-10T07:14:30.635Z,95.00
2018-01-10T07:16:58.060Z,95.00
2018-01-10T07:19:25.607Z,94.90
2018-01-10T07:21:53.040Z,94.90
2018-01-10T07:24:21.717Z,94.90
2018-01-10T07:26:49.908Z,94.90
2018-01-10T07:29:17.364Z,94.90
2018-01-10T07:31:44.800Z,95.00
2018-01-10T07:34:13.027Z,95.00
2018-01-10T07:36:40.465Z,95.00
2018-01-10T07:39:08.054Z,95.00
2018-01-10T07:41:35.509Z,95.00
2018-01-10T07:44:02.950Z,95.00
2018-01-10T07:46:36.053Z,95.00
2018-01-10T07:49:04.505Z,95.00
2018-01-10T07:51:31.940Z,95.00
2018-01-10T07:54:00.132Z,95.00
2018-01-10T07:56:27.639Z,95.00
2018-01-10T07:58:55.060Z,95.00
2018-01-10T08:01:23.180Z,95.00
2018-01-10T08:03:50.689Z,95.10
2018-01-10T08:06:18.139Z,95.10
2018-01-10T08:08:45.582Z,95.10
2018-01-10T08:11:17.653Z,95.20
2018-01-10T08:13:45.072Z,95.20
2018-01-10T08:16:12.808Z,95.20
2018-01-10T08:18:40.300Z,95.20
2018-01-10T08:21:07.743Z,95.20
2018-01-10T08:23:35.521Z,95.20
2018-01-10T08:26:11.992Z,95.30
2018-01-10T08:28:39.928Z,95.30
2018-01-10T08:31:07.357Z,95.30
2018-01-10T08:33:38.440Z,95.30
2018-01-10T08:36:05.872Z,95.30
2018-01-10T08:38:35.597Z,95.30
2018-01-10T08:41:03.026Z,95.30
2018-01-10T08:43:30.453Z,95.30
2018-01-10T08:45:59.940Z,95.60
2018-01-10T08:48:27.622Z,95.60
2018-01-10T08:50:55.820Z,95.30
2018-01-10T08:53:23.295Z,95.30
2018-01-10T08:55:50.741Z,95.20
2018-01-10T08:58:18.168Z,95.20
2018-01-10T09:00:45.731Z,95.30
2018-01-10T09:03:13.966Z,95.30
2018-01-10T09:05:41.385Z,95.30
2018-01-10T09:08:19.620Z,95.40
2018-01-10T09:10:47.041Z,95.40
2018-01-10T09:13:15.277Z,95.40
2018-01-10T09:15:42.844Z,95.40
2018-01-10T09:18:10.277Z,95.50
2018-01-10T09:20:37.720Z,95.50
2018-01-10T09:23:05.278Z,95.50
2018-01-10T09:25:32.696Z,95.60
2018-01-10T09:28:01.713Z,95.50
2018-01-10T09:30:29.136Z,95.50
2018-01-10T09:32:56.804Z,95.40
2018-01-10T09:35:25.976Z,95.30
2018-01-10T09:37:53.435Z,95.30
2018-01-10T09:40:20.876Z,95.20
2018-01-10T09:42:48.337Z,95.20
2018-01-10T09:45:15.775Z,95.10
2018-01-10T09:47:43.233Z,95.10
2018-01-10T09:50:10.849Z,95.10
2018-01-10T09:52:43.497Z,95.00
2018-01-10T09:55:10.930Z,95.00
2018-01-10T09:57:38.353Z,94.90
2018-01-10T10:00:06.580Z,94.90
2018-01-10T10:02:34.029Z,94.90
2018-01-10T10:05:04.481Z,94.80
2018-01-10T10:07:31.949Z,94.80
2018-01-10T10:09:59.372Z,94.70
2018-01-10T10:12:26.984Z,94.60
2018-01-10T10:14:55.194Z,94.40
2018-01-10T10:17:29.034Z,94.40
2018-01-10T10:19:56.454Z,94.30
2018-01-10T10:22:23.908Z,94.20
2018-01-10T10:24:56.227Z,94.10
2018-01-10T10:27:23.756Z,94.00
2018-01-10T10:29:51.192Z,93.90
2018-01-10T10:32:18.632Z,93.90
2018-01-10T10:34:46.892Z,93.80
2018-01-10T10:37:14.378Z,93.80
2018-01-10T10:39:41.825Z,93.70
2018-01-10T10:42:10.068Z,93.50
2018-01-10T10:44:38.456Z,93.50
2018-01-10T10:47:06.108Z,93.40
2018-01-10T10:49:33.548Z,93.30
2018-01-10T10:52:00.984Z,93.20
2018-01-10T10:54:28.442Z,93.10
2018-01-10T10:56:55.900Z,93.10
2018-01-10T10:59:23.332Z,93.10
2018-01-10T11:01:50.951Z,92.80
2018-01-10T11:04:18.532Z,92.80
2018-01-10T11:06:45.963Z,92.70
2018-01-10T11:09:14.377Z,92.60
2018-01-10T11:11:41.804Z,92.50
2018-01-10T11:14:09.299Z,92.50
2018-01-10T11:16:37.505Z,92.40
2018-01-10T11:19:05.017Z,92.50
2018-01-10T11:21:33.124Z,92.20
2018-01-10T11:24:00.556Z,92.20
2018-01-10T11:26:28.748Z,92.00
2018-01-10T11:28:56.213Z,92.00
2018-01-10T11:31:23.649Z,91.90
2018-01-10T11:33:51.860Z,91.80
2018-01-10T11:36:19.288Z,91.80
2018-01-10T11:38:48.565Z,91.70
2018-01-10T11:41:16.004Z,91.70
2018-01-10T11:43:46.005Z,91.70
2018-01-10T11:46:13.467Z,91.60
2018-01-10T11:48:40.940Z,91.60
2018-01-10T11:51:08.377Z,91.50
2018-01-10T11:53:35.828Z,91.50
2018-01-10T11:56:03.304Z,91.30
2018-01-10T11:58:30.736Z,91.30
2018-01-10T12:00:58.160Z,91.20
2018-01-10T12:03:26.444Z,91.20
2018-01-10T12:05:53.973Z,91.20
2018-01-10T12:08:21.425Z,91.10
2018-01-10T12:10:48.868Z,91.00
2018-01-10T12:13:16.752Z,90.90
2018-01-10T12:15:44.184Z,90.80
2018-01-10T12:18:22.091Z,90.70
2018-01-10T12:20:49.526Z,90.70
2018-01-10T12:23:17.411Z,90.50
2018-01-10T12:25:44.845Z,90.50
2018-01-10T12:28:12.360Z,90.70
2018-01-10T12:30:39.788Z,90.30
2018-01-10T12:33:07.224Z,90.30
2018-01-10T12:35:38.388Z,90.30
2018-01-10T12:38:05.880Z,90.30
2018-01-10T12:40:33.308Z,90.20
2018-01-10T12:43:00.773Z,90.20
2018-01-10T12:45:28.236Z,90.20
2018-01-10T12:47:55.672Z,90.20
2018-01-10T12:50:23.135Z,90.20
2018-01-10T12:52:50.616Z,90.20
2018-01-10T12:55:18.045Z,90.20
2018-01-10T12:57:50.463Z,90.10
2018-01-10T13:00:18.647Z,90.00
2018-01-10T13:02:46.871Z,89.90
2018-01-10T13:05:14.336Z,89.90
2018-01-10T13:07:41.768Z,89.80
2018-01-10T13:10:09.199Z,89.60
2018-01-10T13:12:36.744Z,89.50
2018-01-10T13:15:04.960Z,89.00
2018-01-10T13:17:32.468Z,88.90
2018-01-10T13:19:59.897Z,88.80
2018-01-10T13:22:27.334Z,88.60
2018-01-10T13:24:54.828Z,88.30
2018-01-10T13:27:22.264Z,88.20
2018-01-10T13:29:49.688Z,87.90
2018-01-10T13:32:17.188Z,87.70
2018-01-10T13:34:44.617Z,87.50
2018-01-10T13:37:12.120Z,87.40
2018-01-10T13:39:39.560Z,87.50
2018-01-10T13:42:06.992Z,87.50
2018-01-10T13:44:34.461Z,87.30
2018-01-10T13:47:02.097Z,87.10
2018-01-10T13:49:29.523Z,87.20
2018-01-10T13:51:57.717Z,86.80
2018-01-10T13:54:25.345Z,86.70
2018-01-10T13:56:52.777Z,86.90
2018-01-10T13:59:20.204Z,86.80
2018-01-10T14:01:47.676Z,86.80
2018-01-10T14:04:15.136Z,86.70
2018-01-10T14:06:42.568Z,86.80
2018-01-10T14:09:10.196Z,86.70
2018-01-10T14:11:37.624Z,86.50
2018-01-10T14:14:05.060Z,86.30
2018-01-10T14:16:32.514Z,86.10
2018-01-10T14:19:00.113Z,86.10
2018-01-10T14:21:27.557Z,85.90
2018-01-10T14:23:55.017Z,85.70
2018-01-10T14:26:22.456Z,85.70
2018-01-10T14:28:50.000Z,86.30
2018-01-10T14:31:17.488Z,85.20
2018-01-10T14:33:46.913Z,85.10
2018-01-10T14:36:14.366Z,85.10
2018-01-10T14:38:44.373Z,85.10
2018-01-10T14:41:11.841Z,85.10
2018-01-10T14:43:39.429Z,85.00
2018-01-10T14:46:07.801Z,85.10
2018-01-10T14:48:35.241Z,85.00
2018-01-10T14:51:02.700Z,85.20
2018-01-10T14:53:32.600Z,85.20
2018-01-10T14:56:00.584Z,85.30
2018-01-10T14:58:28.019Z,85.30
2018-01-10T15:00:55.452Z,85.30
2018-01-10T15:03:22.919Z,85.40
2018-01-10T15:05:50.371Z,85.50
2018-01-10T15:08:17.828Z,85.70
2018-01-10T15:10:45.265Z,85.70
2018-01-10T15:13:13.541Z,85.90
2018-01-10T15:15:41.764Z,85.90
2018-01-10T15:18:09.362Z,85.90
2018-01-10T15:20:37.560Z,86.00
2018-01-10T15:23:05.025Z,85.90
2018-01-10T15:25:33.451Z,86.10
2018-01-10T15:28:00.904Z,86.00
2018-01-10T15:30:28.335Z,86.20
2018-01-10T15:32:56.117Z,86.40
2018-01-10T15:35:23.553Z,86.60
2018-01-10T15:37:51.000Z,86.80
2018-01-10T15:40:18.468Z,86.80
2018-01-10T15:42:45.929Z,86.80
2018-01-10T15:45:13.341Z,86.80
2018-01-10T15:47:41.728Z,87.00
2018-01-10T15:50:11.920Z,87.20
2018-01-10T15:52:39.343Z,87.20
2018-01-10T15:55:07.035Z,87.30
2018-01-10T15:57:34.464Z,87.50
2018-01-10T16:00:01.900Z,87.50
2018-01-10T16:02:29.709Z,87.60
2018-01-10T16:04:57.141Z,87.70
2018-01-10T16:07:24.572Z,87.90
2018-01-10T16:09:52.971Z,88.20
2018-01-10T16:12:20.400Z,88.20
2018-01-10T16:14:48.600Z,88.30
2018-01-10T16:17:17.086Z,88.30
2018-01-10T16:19:44.516Z,88.40
2018-01-10T16:22:12.708Z,89.10
2018-01-10T16:24:40.309Z,88.40
2018-01-10T16:27:07.746Z,88.40
2018-01-10T16:29:35.244Z,88.50
2018-01-10T16:32:02.668Z,88.60
2018-01-10T16:34:30.933Z,88.70
2018-01-10T16:36:58.368Z,88.70
2018-01-10T16:39:25.831Z,88.70
2018-01-10T16:41:53.256Z,88.80
2018-01-10T16:44:20.709Z,88.70
2018-01-10T16:46:48.139Z,88.60
2018-01-10T16:49:16.104Z,88.60
2018-01-10T16:51:43.602Z,88.50
2018-01-10T16:54:10.965Z,88.50
2018-01-10T16:56:39.184Z,88.20
2018-01-10T16:59:15.468Z,88.10
2018-01-10T17:01:42.912Z,88.20
2018-01-10T17:04:11.319Z,88.00
2018-01-10T17:06:38.852Z,87.90
2018-01-10T17:09:07.293Z,87.80
2018-01-10T17:11:35.508Z,87.80
2018-01-10T17:14:02.949Z,87.70
2018-01-10T17:16:31.160Z,87.60
2018-01-10T17:18:58.593Z,87.60
2018-01-10T17:21:30.073Z,87.50
2018-01-10T17:23:58.453Z,87.50
2018-01-10T17:26:27.989Z,87.40
2018-01-10T17:28:57.156Z,87.50
2018-01-10T17:31:24.596Z,87.50
2018-01-10T17:33:52.180Z,87.50
2018-01-10T17:36:19.608Z,87.60
2018-01-10T17:38:47.048Z,87.60
2018-01-10T17:41:14.500Z,87.60
2018-01-10T17:43:41.936Z,87.60
2018-01-10T17:46:11.196Z,87.50
2018-01-10T17:48:38.628Z,87.50
2018-01-10T17:51:07.621Z,87.50
2018-01-10T17:53:35.072Z,87.50
2018-01-10T17:56:02.500Z,87.50
2018-01-10T17:58:31.676Z,87.50
2018-01-10T18:00:59.108Z,87.50
2018-01-10T18:03:26.673Z,87.40
2018-01-10T18:05:54.098Z,87.40
2018-01-10T18:08:21.515Z,87.40
2018-01-10T18:10:49.737Z,87.30
2018-01-10T18:13:17.217Z,87.30
2018-01-10T18:15:44.645Z,87.30
2018-01-10T18:18:12.072Z,87.30
2018-01-10T18:20:40.597Z,87.30
2018-01-10T18:23:08.042Z,87.30
2018-01-10T18:25:35.500Z,87.30
2018-01-10T18:28:02.925Z,87.40
2018-01-10T18:30:31.148Z,87.50
2018-01-10T18:32:58.577Z,87.50
2018-01-10T18:35:26.028Z,87.50
2018-01-10T18:37:53.512Z,87.60
2018-01-10T18:40:21.121Z,87.80
2018-01-10T18:42:49.315Z,87.70
2018-01-10T18:45:16.744Z,88.10
2018-01-10T18:47:44.205Z,88.30
2018-01-10T18:50:12.629Z,88.40
2018-01-10T18:52:40.831Z,88.60
2018-01-10T18:55:08.323Z,88.50
2018-01-10T18:57:35.757Z,88.60
2018-01-10T19:00:03.195Z,88.60
2018-01-10T19:02:30.696Z,88.70
2018-01-10T19:04:58.930Z,88.80
2018-01-10T19:07:26.372Z,88.80
2018-01-10T19:09:53.830Z,88.90
2018-01-10T19:12:21.287Z,88.90
2018-01-10T19:14:48.749Z,88.90
2018-01-10T19:17:16.175Z,89.00
2018-01-10T19:19:44.593Z,89.10
2018-01-10T19:22:12.040Z,89.10
2018-01-10T19:24:39.473Z,89.10
2018-01-10T19:27:07.008Z,89.20
2018-01-10T19:29:34.464Z,89.30
2018-01-10T19:32:01.906Z,89.40
2018-01-10T19:34:32.439Z,89.50
2018-01-10T19:36:59.972Z,89.70
2018-01-10T19:39:27.587Z,89.70
2018-01-10T19:41:55.802Z,89.90
2018-01-10T19:44:23.237Z,89.80
2018-01-10T19:47:01.816Z,89.90
2018-01-10T19:49:29.248Z,90.00
2018-01-10T19:51:56.687Z,90.10
2018-01-10T19:54:24.183Z,90.10
2018-01-10T19:56:51.617Z,90.20
2018-01-10T19:59:19.056Z,90.20
2018-01-10T20:01:50.325Z,90.20
2018-01-10T20:04:17.765Z,90.20
2018-01-10T20:06:48.234Z,90.20
2018-01-10T20:09:15.728Z,90.20
2018-01-10T20:11:43.159Z,90.20
2018-01-10T20:14:10.583Z,90.20
2018-01-10T20:16:38.435Z,90.30
2018-01-10T20:19:05.865Z,90.30
2018-01-10T20:21:33.301Z,90.20
2018-01-10T20:24:01.628Z,90.50
2018-01-10T20:26:29.065Z,90.20
2018-01-10T20:28:56.496Z,90.20
2018-01-10T20:31:24.916Z,90.20
2018-01-10T20:34:01.408Z,90.20
2018-01-10T20:36:28.853Z,90.20
2018-01-10T20:38:56.291Z,90.20
2018-01-10T20:41:23.752Z,90.20
2018-01-10T20:43:51.248Z,90.20
2018-01-10T20:46:18.681Z,90.20
2018-01-10T20:48:46.909Z,90.50
2018-01-10T20:51:15.239Z,90.20
2018-01-10T20:53:42.675Z,90.10
2018-01-10T20:56:10.107Z,90.20
2018-01-10T20:58:40.336Z,90.20
2018-01-10T21:01:08.541Z,90.20
2018-01-10T21:03:35.968Z,90.20
2018-01-10T21:06:03.881Z,90.20
2018-01-10T21:08:31.308Z,90.20
2018-01-10T21:10:58.744Z,90.10
2018-01-10T21:13:44.171Z,90.20
2018-01-10T21:16:11.608Z,90.20
2018-01-10T21:18:39.156Z,90.20
2018-01-10T21:21:06.585Z,90.30
2018-01-10T21:23:35.232Z,90.40
2018-01-10T21:26:15.444Z,90.30
2018-01-10T21:28:42.898Z,90.40
2018-01-10T21:31:10.378Z,90.40
2018-01-10T21:33:38.579Z,90.80
2018-01-10T21:36:19.664Z,90.50
2018-01-10T21:38:47.112Z,90.50
2018-01-10T21:41:14.559Z,90.60
2018-01-10T21:43:42.109Z,90.60
2018-01-10T21:46:09.532Z,90.70
2018-01-10T21:48:37.809Z,90.80
2018-01-10T21:51:08.524Z,90.80
2018-01-10T21:53:35.963Z,90.80
2018-01-10T21:56:03.452Z,90.80
2018-01-10T21:58:31.656Z,91.20
2018-01-10T22:00:59.085Z,90.90
2018-01-10T22:03:27.451Z,91.00
2018-01-10T22:05:54.886Z,91.00
2018-01-10T22:08:22.322Z,91.00
2018-01-10T22:10:49.785Z,91.00
2018-01-10T22:13:18.222Z,91.10
2018-01-10T22:15:46.420Z,91.10
2018-01-10T22:18:13.856Z,91.10
2018-01-10T22:20:42.701Z,91.20
2018-01-10T22:23:10.145Z,91.20
2018-01-10T22:25:37.584Z,91.20
2018-01-10T22:28:05.069Z,91.20
2018-01-10T22:30:32.528Z,91.30
2018-01-10T22:32:59.972Z,91.30
2018-01-10T22:35:27.440Z,91.30
2018-01-10T22:37:54.880Z,91.40
2018-01-10T22:40:22.516Z,91.40
2018-01-10T22:42:50.721Z,91.40
2018-01-10T22:45:18.156Z,91.50
2018-01-10T22:47:45.940Z,91.50
2018-01-10T22:50:13.373Z,91.50
2018-01-10T22:52:46.960Z,91.60
2018-01-10T22:55:15.263Z,91.70
2018-01-10T22:57:42.696Z,91.60
2018-01-10T23:00:10.891Z,91.80
2018-01-10T23:02:38.353Z,91.70
2018-01-10T23:05:05.796Z,91.80
2018-01-10T23:07:34.022Z,91.90
2018-01-10T23:10:01.452Z,91.80
2018-01-10T23:12:28.964Z,91.90
2018-01-10T23:14:56.400Z,92.00
2018-01-10T23:17:23.888Z,92.10
2018-01-10T23:19:52.103Z,92.10
2018-01-10T23:22:19.549Z,92.10
2018-01-10T23:24:47.164Z,92.10
2018-01-10T23:27:15.294Z,92.20
2018-01-10T23:29:43.661Z,92.20
2018-01-10T23:32:12.093Z,92.20
2018-01-10T23:34:39.570Z,92.30
2018-01-10T23:37:07.788Z,92.40
2018-01-10T23:39:35.232Z,92.40
2018-01-10T23:42:02.687Z,92.40
2018-01-10T23:44:30.127Z,92.40
2018-01-10T23:46:58.333Z,92.50
2018-01-10T23:49:27.404Z,92.50
2018-01-10T23:51:55.604Z,92.60
2018-01-10T23:54:23.384Z,92.50
2018-01-10T23:56:50.816Z,92.60
2018-01-10T23:59:18.252Z,92.60
